createdAt,value
2022-11-27T00:04:51.618Z,7.30
2022-11-27T00:14:55.674Z,8.50
2022-11-27T00:24:58.358Z,9.63
2022-11-27T00:35:00.859Z,9.20
2022-11-27T00:45:03.568Z,9.10
2022-11-27T00:55:06.477Z,7.30
2022-11-27T01:05:09.502Z,7.03
2022-11-27T01:15:12.188Z,6.63
2022-11-27T01:25:14.772Z,7.63
2022-11-27T01:35:17.383Z,8.00
2022-11-27T01:45:21.645Z,8.80
2022-11-27T01:55:31.087Z,6.37
2022-11-27T02:05:34.066Z,8.07
2022-11-27T02:16:18.237Z,8.07
2022-11-27T02:26:55.253Z,8.43
2022-11-27T02:37:19.576Z,7.87
2022-11-27T02:47:23.405Z,7.60
2022-11-27T02:57:27.365Z,8.33
2022-11-27T03:07:45.868Z,7.30
2022-11-27T03:18:19.149Z,6.27
2022-11-27T03:28:23.254Z,6.53
2022-11-27T03:38:25.738Z,5.10
2022-11-27T03:48:46.503Z,5.47
2022-11-27T03:59:14.119Z,6.13
2022-11-27T04:09:16.702Z,6.43
2022-11-27T04:19:19.134Z,5.80
2022-11-27T04:29:22.378Z,5.27
2022-11-27T04:39:24.897Z,5.20
2022-11-27T04:49:27.522Z,5.90
2022-11-27T04:59:30.523Z,4.53
2022-11-27T05:09:33.010Z,5.03
2022-11-27T05:19:35.433Z,4.40
2022-11-27T05:29:40.311Z,4.77
2022-11-27T05:39:42.969Z,4.85
2022-11-27T05:49:45.480Z,5.13
2022-11-27T05:59:48.159Z,4.77
2022-11-27T06:09:50.872Z,4.70
2022-11-27T06:19:53.791Z,4.53
2022-11-27T06:29:56.539Z,4.30
2022-11-27T06:39:58.890Z,4.60
2022-11-27T06:50:01.402Z,5.07
2022-11-27T07:00:06.187Z,4.30
2022-11-27T07:10:09.613Z,5.20
2022-11-27T07:20:12.703Z,5.23
2022-11-27T07:30:17.567Z,5.23
2022-11-27T07:40:20.217Z,5.43
2022-11-27T07:50:23.419Z,5.33
2022-11-27T08:00:26.367Z,5.93
2022-11-27T08:10:29.011Z,5.87
2022-11-27T08:20:31.488Z,6.87
2022-11-27T08:30:33.787Z,9.80
2022-11-27T08:40:36.627Z,9.77
2022-11-27T08:50:39.687Z,9.47
2022-11-27T09:00:42.797Z,10.10
2022-11-27T09:10:46.807Z,9.50
2022-11-27T09:21:04.091Z,8.40
2022-11-27T09:31:08.761Z,9.37
2022-11-27T09:41:11.960Z,9.45
2022-11-27T09:51:34.720Z,8.00
2022-11-27T10:01:45.281Z,9.13
2022-11-27T10:12:10.373Z,8.77
2022-11-27T10:22:28.669Z,8.57
2022-11-27T10:43:18.648Z,8.60
2022-11-27T10:53:32.463Z,7.73
2022-11-27T11:03:36.546Z,7.80
2022-11-27T11:13:42.180Z,8.17
2022-11-27T11:23:48.327Z,7.43
2022-11-27T11:33:58.917Z,7.10
2022-11-27T11:44:03.038Z,7.43
2022-11-27T11:54:35.893Z,6.93
2022-11-27T12:05:08.011Z,7.10
2022-11-27T12:15:35.134Z,7.30
2022-11-27T12:26:02.598Z,6.80
2022-11-27T12:36:28.957Z,6.80
2022-11-27T12:47:00.423Z,7.43
2022-11-27T12:57:08.643Z,6.60
2022-11-27T13:07:21.427Z,7.37
2022-11-27T13:17:30.381Z,7.67
2022-11-27T13:27:37.858Z,7.07
2022-11-27T13:37:42.754Z,7.80
2022-11-27T13:47:46.388Z,8.10
2022-11-27T13:57:54.143Z,7.90
2022-11-27T14:07:57.884Z,7.90
2022-11-27T14:18:22.427Z,7.70
2022-11-27T14:28:26.597Z,7.20
2022-11-27T14:38:31.215Z,8.53
2022-11-27T14:48:48.851Z,8.33
2022-11-27T14:58:57.841Z,7.67
2022-11-27T15:09:29.705Z,7.43
2022-11-27T15:19:31.764Z,7.40
2022-11-27T15:29:37.581Z,8.47
2022-11-27T15:39:48.551Z,8.97
2022-11-27T15:49:51.848Z,8.60
2022-11-27T15:59:54.760Z,8.07
2022-11-27T16:09:58.511Z,8.37
2022-11-27T16:20:01.630Z,8.83
2022-11-27T16:30:05.379Z,8.90
2022-11-27T16:40:08.785Z,8.33
2022-11-27T16:50:14.809Z,8.87
2022-11-27T17:00:18.232Z,8.27
2022-11-27T17:10:21.508Z,8.70
2022-11-27T17:20:25.013Z,9.20
2022-11-27T17:30:28.541Z,9.00
2022-11-27T17:40:31.133Z,7.63
2022-11-27T17:50:33.982Z,8.57
2022-11-27T18:00:40.435Z,7.30
2022-11-27T18:10:43.800Z,7.47
2022-11-27T18:20:47.160Z,8.10
2022-11-27T18:30:50.835Z,8.17
2022-11-27T18:40:53.770Z,6.83
2022-11-27T18:51:10.811Z,7.60
2022-11-27T19:01:17.356Z,7.90
2022-11-27T19:11:24.465Z,7.30
2022-11-27T19:21:31.746Z,8.30
2022-11-27T19:31:35.356Z,8.10
2022-11-27T19:41:38.244Z,7.60
2022-11-27T19:51:41.506Z,7.67
2022-11-27T20:01:45.222Z,6.83
2022-11-27T20:11:49.418Z,7.20
2022-11-27T20:21:52.167Z,8.07
2022-11-27T20:31:55.212Z,6.53
2022-11-27T20:41:57.894Z,7.13
2022-11-27T20:52:03.993Z,6.47
2022-11-27T21:02:06.382Z,7.97
2022-11-27T21:12:11.497Z,7.90
2022-11-27T21:22:14.780Z,7.57
2022-11-27T21:32:23.038Z,8.17
2022-11-27T21:42:26.929Z,8.17
2022-11-27T21:52:30.208Z,8.77
2022-11-27T22:02:34.387Z,7.60
2022-11-27T22:12:37.437Z,8.30
2022-11-27T22:22:40.063Z,8.03
2022-11-27T22:32:42.890Z,7.37
2022-11-27T22:42:46.105Z,8.33
2022-11-27T22:52:48.870Z,6.83
2022-11-27T23:02:51.718Z,7.70
2022-11-27T23:12:54.815Z,6.97
2022-11-27T23:22:57.654Z,7.70
2022-11-27T23:33:00.179Z,7.57
2022-11-27T23:43:02.686Z,8.57
2022-11-27T23:53:05.108Z,8.07
